createdAt,value
2022-12-09T00:01:27.965Z,0.85
2022-12-09T00:03:56.160Z,0.98
2022-12-09T00:06:25.564Z,1.00
2022-12-09T00:08:52.944Z,1.07
2022-12-09T00:11:20.855Z,1.12
2022-12-09T00:13:52.815Z,0.85
2022-12-09T00:16:19.815Z,0.85
2022-12-09T00:18:46.583Z,0.76
2022-12-09T00:21:18.984Z,0.72
2022-12-09T00:23:45.826Z,0.85
2022-12-09T00:26:13.135Z,0.93
2022-12-09T00:28:40.510Z,0.84
2022-12-09T00:31:08.039Z,0.76
2022-12-09T00:33:35.256Z,0.67
2022-12-09T00:36:10.685Z,0.63
2022-12-09T00:38:37.893Z,0.76
2022-12-09T00:41:05.602Z,0.74
2022-12-09T00:43:33.115Z,0.65
2022-12-09T00:46:00.603Z,0.69
2022-12-09T00:48:28.248Z,0.65
2022-12-09T00:50:55.424Z,0.65
2022-12-09T00:53:22.076Z,0.52
2022-12-09T00:55:49.088Z,0.51
2022-12-09T00:58:16.093Z,0.68
2022-12-09T01:00:43.013Z,0.58
2022-12-09T01:03:17.597Z,0.38
2022-12-09T01:05:44.911Z,0.54
2022-12-09T01:08:12.575Z,0.39
2022-12-09T01:10:41.497Z,0.42
2022-12-09T01:13:08.655Z,0.62
2022-12-09T01:15:36.144Z,0.49
2022-12-09T01:18:03.330Z,0.55
2022-12-09T01:20:30.007Z,0.50
2022-12-09T01:22:56.686Z,0.67
2022-12-09T01:25:23.277Z,0.59
2022-12-09T01:27:50.224Z,0.53
2022-12-09T01:30:17.248Z,0.30
2022-12-09T01:32:44.240Z,0.17
2022-12-09T01:35:11.174Z,0.13
2022-12-09T01:37:38.401Z,0.26
2022-12-09T01:40:08.374Z,0.29
2022-12-09T01:42:35.552Z,0.34
2022-12-09T01:45:20.715Z,0.33
2022-12-09T01:47:49.245Z,0.19
2022-12-09T01:50:16.926Z,0.01
2022-12-09T01:52:44.717Z,-0.10
2022-12-09T01:55:12.219Z,-0.49
2022-12-09T01:57:39.698Z,-0.12
2022-12-09T02:00:07.892Z,0.18
2022-12-09T02:02:38.336Z,0.19
2022-12-09T02:05:06.641Z,0.49
2022-12-09T02:07:33.900Z,0.34
2022-12-09T02:10:02.447Z,-0.24
2022-12-09T02:12:41.185Z,-0.20
2022-12-09T02:17:55.524Z,-0.47
2022-12-09T02:20:24.858Z,-0.55
2022-12-09T02:23:07.590Z,-0.36
2022-12-09T02:25:49.642Z,-0.03
2022-12-09T02:28:34.857Z,-0.27
2022-12-09T02:31:25.754Z,0.03
2022-12-09T02:33:58.620Z,-0.11
2022-12-09T02:36:30.040Z,-0.11
2022-12-09T02:38:58.532Z,0.02
2022-12-09T02:41:30.692Z,0.03
2022-12-09T02:44:03.116Z,0.07
2022-12-09T02:46:31.761Z,0.10
2022-12-09T02:48:59.731Z,-0.03
2022-12-09T02:51:30.046Z,0.06
2022-12-09T02:54:04.150Z,0.03
2022-12-09T02:56:32.447Z,-0.12
2022-12-09T02:58:59.173Z,-0.04
2022-12-09T03:01:40.266Z,-0.15
2022-12-09T03:04:09.109Z,-0.24
2022-12-09T03:06:46.852Z,-0.28
2022-12-09T03:09:26.796Z,-0.19
2022-12-09T03:11:58.421Z,-0.55
2022-12-09T03:14:36.116Z,-0.50
2022-12-09T03:17:13.134Z,-0.53
2022-12-09T03:19:40.205Z,-0.36
2022-12-09T03:22:13.060Z,-0.42
2022-12-09T03:24:46.083Z,-0.33
2022-12-09T03:27:18.767Z,-0.32
2022-12-09T03:29:48.323Z,-0.45
2022-12-09T03:32:17.992Z,-0.55
2022-12-09T03:34:47.849Z,-0.72
2022-12-09T03:37:17.404Z,-0.61
2022-12-09T03:39:45.702Z,-0.53
2022-12-09T03:42:33.495Z,-0.47
2022-12-09T03:45:06.121Z,-0.45
2022-12-09T03:47:33.422Z,-0.46
2022-12-09T03:50:00.515Z,-0.43
2022-12-09T03:52:34.422Z,-0.39
2022-12-09T03:55:27.225Z,-0.38
2022-12-09T03:57:58.181Z,-0.43
2022-12-09T04:00:25.144Z,-0.55
2022-12-09T04:02:52.540Z,-0.54
2022-12-09T04:05:19.722Z,-0.38
2022-12-09T04:07:46.703Z,-0.54
2022-12-09T04:10:13.859Z,-0.52
2022-12-09T04:12:40.523Z,-0.39
2022-12-09T04:15:07.801Z,-0.64
2022-12-09T04:22:38.114Z,-0.54
2022-12-09T04:25:05.268Z,-0.72
2022-12-09T04:27:32.032Z,-0.87
2022-12-09T04:29:58.949Z,-0.92
2022-12-09T04:32:26.068Z,-0.75
2022-12-09T04:34:52.705Z,-0.74
2022-12-09T04:37:19.650Z,-0.69
2022-12-09T04:39:46.277Z,-0.80
2022-12-09T04:42:13.007Z,-0.85
2022-12-09T04:47:11.263Z,-0.88
2022-12-09T04:49:38.273Z,-1.03
2022-12-09T04:52:05.410Z,-0.76
2022-12-09T04:59:38.386Z,-0.67
2022-12-09T05:02:05.165Z,-0.76
2022-12-09T05:04:32.040Z,-0.67
2022-12-09T05:06:58.908Z,-0.78
2022-12-09T05:09:25.875Z,-0.83
2022-12-09T05:11:53.689Z,-0.94
2022-12-09T05:14:20.941Z,-0.97
2022-12-09T05:16:47.685Z,-1.09
2022-12-09T05:19:14.593Z,-1.11
2022-12-09T05:21:44.103Z,-0.96
2022-12-09T05:24:11.254Z,-0.90
2022-12-09T05:26:38.470Z,-0.85
2022-12-09T05:29:05.936Z,-0.84
2022-12-09T05:31:33.421Z,-0.85
2022-12-09T05:34:00.646Z,-0.84
2022-12-09T05:38:59.200Z,-0.77
2022-12-09T05:41:26.222Z,-0.79
2022-12-09T05:43:53.336Z,-0.80
2022-12-09T05:46:20.689Z,-0.88
2022-12-09T05:48:47.649Z,-1.08
2022-12-09T05:51:32.922Z,-1.05
2022-12-09T05:54:04.988Z,-1.05
2022-12-09T05:56:33.528Z,-0.98
2022-12-09T05:59:00.820Z,-0.95
2022-12-09T06:01:27.939Z,-0.66
2022-12-09T06:03:55.429Z,-0.86
2022-12-09T06:06:27.018Z,-0.88
2022-12-09T06:08:59.875Z,-0.79
2022-12-09T06:11:27.906Z,-0.70
2022-12-09T06:13:55.464Z,-0.77
2022-12-09T06:16:23.394Z,-0.60
2022-12-09T06:18:51.566Z,-0.56
2022-12-09T06:21:20.013Z,-0.49
2022-12-09T06:23:47.630Z,-0.56
2022-12-09T06:26:22.291Z,-0.51
2022-12-09T06:28:49.539Z,-0.48
2022-12-09T06:33:57.542Z,-0.35
2022-12-09T06:36:27.842Z,-0.47
2022-12-09T06:41:26.389Z,-0.50
2022-12-09T06:43:53.862Z,-0.41
2022-12-09T06:46:26.030Z,-0.60
2022-12-09T06:48:54.818Z,-0.48
2022-12-09T06:51:23.037Z,-0.27
2022-12-09T06:53:50.119Z,-0.31
2022-12-09T06:56:17.704Z,-0.23
2022-12-09T06:58:46.113Z,-0.30
2022-12-09T07:01:18.525Z,-0.50
2022-12-09T07:03:50.752Z,-0.72
2022-12-09T07:06:29.923Z,-0.92
2022-12-09T07:08:59.076Z,-1.08
2022-12-09T07:13:57.750Z,-0.99
2022-12-09T07:16:25.229Z,-0.56
2022-12-09T07:18:52.783Z,-0.50
2022-12-09T07:21:22.772Z,-0.54
2022-12-09T07:23:50.069Z,-0.65
2022-12-09T07:26:18.579Z,-0.40
2022-12-09T07:28:47.449Z,-0.46
2022-12-09T07:31:25.479Z,-0.31
2022-12-09T07:33:54.386Z,-0.11
2022-12-09T07:36:22.774Z,-0.10
2022-12-09T07:39:05.474Z,-0.12
2022-12-09T07:41:32.557Z,-0.23
2022-12-09T07:43:59.809Z,-0.04
2022-12-09T07:46:27.869Z,-0.21
2022-12-09T07:48:56.465Z,-0.15
2022-12-09T07:51:25.161Z,-0.03
2022-12-09T07:53:52.562Z,-0.11
2022-12-09T07:56:19.742Z,-0.31
2022-12-09T07:58:48.120Z,-0.32
2022-12-09T08:01:18.822Z,-0.19
2022-12-09T08:03:47.374Z,0.05
2022-12-09T08:06:17.180Z,0.14
2022-12-09T08:08:44.659Z,0.25
2022-12-09T08:11:16.234Z,0.31
2022-12-09T08:13:43.268Z,0.25
2022-12-09T08:16:12.401Z,0.22
2022-12-09T08:18:40.250Z,0.17
2022-12-09T08:23:48.705Z,0.22
2022-12-09T08:26:17.743Z,0.34
2022-12-09T08:28:44.661Z,0.30
2022-12-09T08:31:14.625Z,0.22
2022-12-09T08:33:41.871Z,0.21
2022-12-09T08:36:21.019Z,0.08
2022-12-09T08:38:48.139Z,0.25
2022-12-09T08:41:21.527Z,0.31
2022-12-09T08:43:49.226Z,0.47
2022-12-09T08:46:16.444Z,0.45
2022-12-09T08:48:43.748Z,0.37
2022-12-09T08:51:12.231Z,0.58
2022-12-09T08:53:39.939Z,0.59
2022-12-09T08:56:14.815Z,0.57
2022-12-09T08:58:43.213Z,0.71
2022-12-09T09:01:26.828Z,0.72
2022-12-09T09:03:54.026Z,0.92
2022-12-09T09:06:21.479Z,0.92
2022-12-09T09:08:49.041Z,0.89
2022-12-09T09:11:19.713Z,0.71
2022-12-09T09:13:48.940Z,0.77
2022-12-09T09:16:19.244Z,0.64
2022-12-09T09:18:46.756Z,0.91
2022-12-09T09:21:16.092Z,0.87
2022-12-09T09:23:43.989Z,0.84
2022-12-09T09:26:13.255Z,0.74
2022-12-09T09:28:40.712Z,0.85
2022-12-09T09:31:09.375Z,0.94
2022-12-09T09:33:37.288Z,1.01
2022-12-09T09:36:10.166Z,1.05
2022-12-09T09:38:38.518Z,1.15
2022-12-09T09:41:34.866Z,1.13
2022-12-09T09:44:02.230Z,1.07
2022-12-09T09:46:40.015Z,1.15
2022-12-09T09:49:13.308Z,1.26
2022-12-09T09:51:40.169Z,1.29
2022-12-09T09:54:10.895Z,1.32
2022-12-09T09:56:47.941Z,1.46
2022-12-09T09:59:37.689Z,1.25
2022-12-09T10:02:19.477Z,1.20
2022-12-09T10:05:03.489Z,1.22
2022-12-09T10:07:57.293Z,1.08
2022-12-09T10:10:41.274Z,1.15
2022-12-09T10:13:29.641Z,1.30
2022-12-09T10:16:17.677Z,1.46
2022-12-09T10:18:53.650Z,1.43
2022-12-09T10:21:21.799Z,1.49
2022-12-09T10:23:50.693Z,1.56
2022-12-09T10:26:25.900Z,1.53
2022-12-09T10:29:18.695Z,1.68
2022-12-09T10:31:45.972Z,1.82
2022-12-09T10:34:14.360Z,1.80
2022-12-09T10:36:45.307Z,1.77
2022-12-09T10:39:19.070Z,1.82
2022-12-09T10:42:10.581Z,1.67
2022-12-09T10:44:37.561Z,1.77
2022-12-09T10:47:08.006Z,1.58
2022-12-09T10:49:36.214Z,1.70
2022-12-09T10:52:05.421Z,1.74
2022-12-09T10:54:37.188Z,2.03
2022-12-09T10:57:13.006Z,2.00
2022-12-09T10:59:42.498Z,1.94
2022-12-09T11:02:09.840Z,1.93
2022-12-09T11:04:37.210Z,1.88
2022-12-09T11:07:13.249Z,1.82
2022-12-09T11:09:45.821Z,1.83
2022-12-09T11:12:19.222Z,1.89
2022-12-09T11:14:52.547Z,1.99
2022-12-09T11:17:28.401Z,1.81
2022-12-09T11:20:17.646Z,1.94
2022-12-09T11:22:46.173Z,1.91
2022-12-09T11:25:16.625Z,1.95
2022-12-09T11:27:52.176Z,1.94
2022-12-09T11:30:21.903Z,1.87
2022-12-09T11:32:56.989Z,1.90
2022-12-09T11:35:31.235Z,1.93
2022-12-09T11:38:01.361Z,1.87
2022-12-09T11:40:28.961Z,2.02
2022-12-09T11:42:57.256Z,2.03
2022-12-09T11:45:33.795Z,2.18
2022-12-09T11:48:31.938Z,2.25
2022-12-09T11:51:01.934Z,2.08
2022-12-09T11:53:31.430Z,2.15
2022-12-09T11:56:16.014Z,2.28
2022-12-09T11:58:48.480Z,2.30
2022-12-09T12:01:28.928Z,2.36
2022-12-09T12:04:01.674Z,2.47
2022-12-09T12:06:39.952Z,2.46
2022-12-09T12:09:16.160Z,2.37
2022-12-09T12:11:51.715Z,2.49
2022-12-09T12:14:28.156Z,2.40
2022-12-09T12:17:14.299Z,2.41
2022-12-09T12:19:43.668Z,2.32
2022-12-09T12:22:35.044Z,2.35
2022-12-09T12:25:22.205Z,2.31
2022-12-09T12:28:26.395Z,2.21
2022-12-09T12:31:19.953Z,2.22
2022-12-09T12:34:23.509Z,2.24
2022-12-09T12:36:53.513Z,2.29
2022-12-09T12:39:26.101Z,2.39
2022-12-09T12:42:11.091Z,2.41
2022-12-09T12:48:15.897Z,2.35
2022-12-09T12:50:48.429Z,2.33
2022-12-09T12:53:33.784Z,2.37
2022-12-09T12:56:15.711Z,2.50
2022-12-09T12:59:00.300Z,2.47
2022-12-09T13:02:16.032Z,2.44
2022-12-09T13:04:54.749Z,2.50
2022-12-09T13:07:48.467Z,2.46
2022-12-09T13:10:39.824Z,2.59
2022-12-09T13:13:34.346Z,2.64
2022-12-09T13:16:07.143Z,2.60
2022-12-09T13:18:36.941Z,2.67
2022-12-09T13:24:08.800Z,2.65
2022-12-09T13:26:53.402Z,2.72
2022-12-09T13:29:47.640Z,2.92
2022-12-09T13:32:26.804Z,2.94
2022-12-09T13:37:54.961Z,2.94
2022-12-09T13:40:21.557Z,2.95
2022-12-09T13:42:58.996Z,3.00
2022-12-09T13:45:25.647Z,2.94
2022-12-09T13:47:56.393Z,2.99
2022-12-09T13:50:27.718Z,2.86
2022-12-09T13:52:57.922Z,2.86
2022-12-09T13:55:30.484Z,2.84
2022-12-09T13:58:12.654Z,2.90
2022-12-09T14:00:43.578Z,2.78
2022-12-09T14:03:30.575Z,2.90
2022-12-09T14:06:00.647Z,2.83
2022-12-09T14:08:33.697Z,2.80
2022-12-09T14:11:38.537Z,2.78
2022-12-09T14:14:23.496Z,2.70
2022-12-09T14:16:54.794Z,2.74
2022-12-09T14:19:24.125Z,2.74
2022-12-09T14:22:22.316Z,2.63
2022-12-09T14:24:52.928Z,2.72
2022-12-09T14:27:25.518Z,2.71
2022-12-09T14:29:52.113Z,2.59
2022-12-09T14:32:31.977Z,2.63
2022-12-09T14:35:10.504Z,2.64
2022-12-09T14:37:42.531Z,2.65
2022-12-09T14:40:14.835Z,2.64
2022-12-09T14:43:10.145Z,2.63
2022-12-09T14:46:00.574Z,2.62
2022-12-09T14:48:31.387Z,2.78
2022-12-09T14:51:20.155Z,2.89
2022-12-09T14:53:57.698Z,2.90
2022-12-09T14:56:26.118Z,2.73
2022-12-09T14:59:18.758Z,2.72
2022-12-09T15:01:54.444Z,2.67
2022-12-09T15:04:36.229Z,2.53
2022-12-09T15:07:20.392Z,2.64
2022-12-09T15:12:37.168Z,2.62
2022-12-09T15:15:23.438Z,2.64
2022-12-09T15:17:58.029Z,2.57
2022-12-09T15:20:27.621Z,2.53
2022-12-09T15:23:07.270Z,2.61
2022-12-09T15:25:45.388Z,2.56
2022-12-09T15:28:24.515Z,2.50
2022-12-09T15:33:42.525Z,2.42
2022-12-09T15:36:43.096Z,2.44
2022-12-09T15:39:18.392Z,2.87
2022-12-09T15:42:06.551Z,2.93
2022-12-09T15:44:36.142Z,2.70
2022-12-09T15:47:10.305Z,2.61
2022-12-09T15:49:45.240Z,2.57
2022-12-09T15:52:14.404Z,2.51
2022-12-09T15:54:44.474Z,2.43
2022-12-09T15:57:17.597Z,2.61
2022-12-09T15:59:55.512Z,2.59
2022-12-09T16:02:27.665Z,2.59
2022-12-09T16:04:58.154Z,2.57
2022-12-09T16:07:25.404Z,2.68
2022-12-09T16:10:12.806Z,2.47
2022-12-09T16:12:41.031Z,2.44
2022-12-09T16:15:11.406Z,2.46
2022-12-09T16:17:53.473Z,2.61
2022-12-09T16:23:25.020Z,2.55
2022-12-09T16:25:52.137Z,2.63
2022-12-09T16:28:27.565Z,2.58
2022-12-09T16:31:04.485Z,2.42
2022-12-09T16:33:37.747Z,2.52
2022-12-09T16:36:07.207Z,2.43
2022-12-09T16:38:38.854Z,2.61
2022-12-09T16:41:08.962Z,2.61
2022-12-09T16:46:14.111Z,2.68
2022-12-09T16:48:42.639Z,2.73
2022-12-09T16:51:21.133Z,2.81
2022-12-09T16:53:52.432Z,2.78
2022-12-09T16:56:20.436Z,2.80
2022-12-09T16:58:47.583Z,2.60
2022-12-09T17:01:16.707Z,2.64
2022-12-09T17:03:45.039Z,2.63
2022-12-09T17:06:17.220Z,2.65
2022-12-09T17:08:44.930Z,2.71
2022-12-09T17:11:12.277Z,2.72
2022-12-09T17:13:39.552Z,2.60
2022-12-09T17:16:07.141Z,2.73
2022-12-09T17:18:34.619Z,2.67
2022-12-09T17:21:04.527Z,2.49
2022-12-09T17:23:37.698Z,2.35
2022-12-09T17:26:08.015Z,2.62
2022-12-09T17:28:36.037Z,2.54
2022-12-09T17:31:11.215Z,2.71
2022-12-09T17:33:38.626Z,2.78
2022-12-09T17:36:06.159Z,2.69
2022-12-09T17:41:10.249Z,2.84
2022-12-09T17:43:37.480Z,2.54
2022-12-09T17:46:06.062Z,2.38
2022-12-09T17:48:34.547Z,2.56
2022-12-09T17:51:09.164Z,2.44
2022-12-09T17:53:37.509Z,2.26
2022-12-09T17:56:16.714Z,2.18
2022-12-09T18:04:04.674Z,2.56
2022-12-09T18:06:35.252Z,2.71
2022-12-09T18:09:04.484Z,2.76
2022-12-09T18:11:31.883Z,2.85
2022-12-09T18:13:59.297Z,2.55
2022-12-09T18:16:26.044Z,2.54
2022-12-09T18:18:53.309Z,2.44
2022-12-09T18:21:20.392Z,2.54
2022-12-09T18:23:48.525Z,2.69
2022-12-09T18:26:17.707Z,2.73
2022-12-09T18:28:44.626Z,2.76
2022-12-09T18:31:19.323Z,2.83
2022-12-09T18:33:46.631Z,2.82
2022-12-09T18:36:18.712Z,2.77
2022-12-09T18:38:45.455Z,2.78
2022-12-09T18:41:14.071Z,2.75
2022-12-09T18:43:43.181Z,2.81
2022-12-09T18:46:13.304Z,2.93
2022-12-09T18:48:40.885Z,2.93
2022-12-09T18:51:20.908Z,3.08
2022-12-09T18:53:48.737Z,2.97
2022-12-09T18:56:16.782Z,3.02
2022-12-09T18:59:05.302Z,2.86
2022-12-09T19:01:31.807Z,2.75
2022-12-09T19:04:03.775Z,2.60
2022-12-09T19:06:35.686Z,2.73
2022-12-09T19:11:41.669Z,2.91
2022-12-09T19:14:09.173Z,3.01
2022-12-09T19:16:36.168Z,2.82
2022-12-09T19:19:09.139Z,2.69
2022-12-09T19:21:37.326Z,2.59
2022-12-09T19:24:04.205Z,2.71
2022-12-09T19:26:33.122Z,2.69
2022-12-09T19:29:02.256Z,2.73
2022-12-09T19:31:38.644Z,2.65
2022-12-09T19:34:10.767Z,2.81
2022-12-09T19:36:37.459Z,2.73
2022-12-09T19:39:06.447Z,2.57
2022-12-09T19:41:33.118Z,2.57
2022-12-09T19:44:01.137Z,2.57
2022-12-09T19:46:28.745Z,2.72
2022-12-09T19:48:57.243Z,2.78
2022-12-09T19:51:25.275Z,2.83
2022-12-09T19:53:56.606Z,2.83
2022-12-09T19:56:24.283Z,2.79
2022-12-09T19:58:52.699Z,2.68
2022-12-09T20:01:22.909Z,2.72
2022-12-09T20:03:56.218Z,2.74
2022-12-09T20:06:23.011Z,2.64
2022-12-09T20:08:49.717Z,2.73
2022-12-09T20:11:19.925Z,2.69
2022-12-09T20:13:47.390Z,2.72
2022-12-09T20:16:18.373Z,2.78
2022-12-09T20:18:47.798Z,2.77
2022-12-09T20:21:16.555Z,2.89
2022-12-09T20:23:44.208Z,2.96
2022-12-09T20:26:20.376Z,2.98
2022-12-09T20:28:48.665Z,3.03
2022-12-09T20:31:21.011Z,2.95
2022-12-09T20:33:48.713Z,2.78
2022-12-09T20:36:19.707Z,2.70
2022-12-09T20:38:54.691Z,2.45
2022-12-09T20:41:22.479Z,2.29
2022-12-09T20:43:50.841Z,2.26
2022-12-09T20:46:20.598Z,2.70
2022-12-09T20:48:48.207Z,2.88
2022-12-09T20:51:41.531Z,2.91
2022-12-09T20:54:10.340Z,2.85
2022-12-09T20:56:37.634Z,2.90
2022-12-09T20:59:04.898Z,2.98
2022-12-09T21:01:34.412Z,2.97
2022-12-09T21:04:02.513Z,2.93
2022-12-09T21:06:34.392Z,2.94
2022-12-09T21:09:06.268Z,2.65
2022-12-09T21:11:33.077Z,2.68
2022-12-09T21:14:02.233Z,2.69
2022-12-09T21:16:34.828Z,2.59
2022-12-09T21:19:05.378Z,2.54
2022-12-09T21:21:35.340Z,2.30
2022-12-09T21:24:02.801Z,2.26
2022-12-09T21:29:01.769Z,2.61
2022-12-09T21:31:32.067Z,2.72
2022-12-09T21:34:03.799Z,2.81
2022-12-09T21:36:33.415Z,2.81
2022-12-09T21:39:00.705Z,2.71
2022-12-09T21:41:31.071Z,2.78
2022-12-09T21:43:58.159Z,2.73
2022-12-09T21:46:30.089Z,2.71
2022-12-09T21:49:03.350Z,2.70
2022-12-09T21:51:31.660Z,2.70
2022-12-09T21:53:58.304Z,2.50
2022-12-09T21:56:27.752Z,2.70
2022-12-09T21:58:57.348Z,2.81
2022-12-09T22:01:30.071Z,2.51
2022-12-09T22:03:58.452Z,2.60
2022-12-09T22:06:25.791Z,2.68
2022-12-09T22:08:52.441Z,2.74
2022-12-09T22:11:25.067Z,2.54
2022-12-09T22:13:52.747Z,2.35
2022-12-09T22:16:22.878Z,2.54
2022-12-09T22:18:50.660Z,2.64
2022-12-09T22:21:25.173Z,2.51
2022-12-09T22:23:55.003Z,2.59
2022-12-09T22:26:22.958Z,2.40
2022-12-09T22:28:50.282Z,2.39
2022-12-09T22:31:25.895Z,2.60
2022-12-09T22:33:54.661Z,2.62
2022-12-09T22:36:22.501Z,2.53
2022-12-09T22:38:49.776Z,2.38
2022-12-09T22:41:19.883Z,2.55
2022-12-09T22:43:48.363Z,2.83
2022-12-09T22:46:17.594Z,2.92
2022-12-09T22:48:44.485Z,2.82
2022-12-09T22:51:17.391Z,2.80
2022-12-09T22:53:44.647Z,2.82
2022-12-09T22:56:12.557Z,2.77
2022-12-09T22:58:39.186Z,2.49
2022-12-09T23:01:10.222Z,2.55
2022-12-09T23:03:37.357Z,2.78
2022-12-09T23:06:04.212Z,2.84
2022-12-09T23:08:30.903Z,2.81
2022-12-09T23:11:05.769Z,2.71
2022-12-09T23:13:36.208Z,2.88
2022-12-09T23:16:09.338Z,2.62
2022-12-09T23:18:36.145Z,2.54
2022-12-09T23:21:11.421Z,2.48
2022-12-09T23:23:38.633Z,2.31
2022-12-09T23:26:11.371Z,2.36
2022-12-09T23:28:42.797Z,2.49
2022-12-09T23:31:12.132Z,2.75
2022-12-09T23:33:40.081Z,2.69
2022-12-09T23:36:08.020Z,2.32
2022-12-09T23:38:35.164Z,2.49
2022-12-09T23:41:02.040Z,2.54
2022-12-09T23:43:33.088Z,2.68
2022-12-09T23:46:01.715Z,2.78
2022-12-09T23:48:28.441Z,2.84
2022-12-09T23:50:55.534Z,2.90
2022-12-09T23:53:22.603Z,3.00
2022-12-09T23:55:49.452Z,2.99
2022-12-09T23:58:19.244Z,2.69
